createdAt,value
2019-03-20T00:01:48.139Z,9.15
2019-03-20T00:04:19.970Z,9.15
2019-03-20T00:06:50.484Z,9.05
2019-03-20T00:09:23.075Z,9.13
2019-03-20T00:11:53.818Z,9.20
2019-03-20T00:14:24.863Z,9.14
2019-03-20T00:16:55.518Z,9.14
2019-03-20T00:19:25.917Z,9.02
2019-03-20T00:21:56.509Z,9.01
2019-03-20T00:24:27.214Z,9.12
2019-03-20T00:26:58.042Z,9.12
2019-03-20T00:29:28.517Z,9.10
2019-03-20T00:31:59.084Z,9.15
2019-03-20T00:34:29.932Z,9.15
2019-03-20T00:37:00.584Z,9.15
2019-03-20T00:39:31.315Z,9.11
2019-03-20T00:42:01.886Z,9.13
2019-03-20T00:44:32.764Z,9.11
2019-03-20T00:47:03.513Z,9.19
2019-03-20T00:49:34.190Z,9.19
2019-03-20T00:52:04.888Z,9.19
2019-03-20T00:54:35.532Z,9.13
2019-03-20T00:57:06.578Z,9.11
2019-03-20T00:59:37.414Z,9.12
2019-03-20T01:02:08.877Z,9.12
2019-03-20T01:04:39.390Z,9.13
2019-03-20T01:07:11.289Z,9.14
2019-03-20T01:09:42.933Z,9.17
2019-03-20T01:12:17.664Z,9.17
2019-03-20T01:14:47.784Z,9.23
2019-03-20T01:17:18.500Z,9.06
2019-03-20T01:19:49.189Z,9.06
2019-03-20T01:22:20.348Z,9.10
2019-03-20T01:24:51.296Z,9.20
2019-03-20T01:27:22.563Z,9.16
2019-03-20T01:29:53.328Z,9.16
2019-03-20T01:32:23.994Z,9.04
2019-03-20T01:34:55.447Z,9.04
2019-03-20T01:37:26.193Z,9.04
2019-03-20T01:39:56.705Z,9.04
2019-03-20T01:42:27.109Z,8.99
2019-03-20T01:44:57.851Z,8.99
2019-03-20T01:47:28.285Z,8.93
2019-03-20T01:49:59.038Z,8.93
2019-03-20T01:52:29.991Z,9.01
2019-03-20T01:55:00.758Z,9.01
2019-03-20T01:57:31.258Z,9.01
2019-03-20T02:00:02.217Z,9.06
2019-03-20T02:02:33.012Z,9.09
2019-03-20T02:05:03.589Z,9.09
2019-03-20T02:07:34.284Z,8.89
2019-03-20T02:10:05.512Z,8.89
2019-03-20T02:12:37.624Z,8.87
2019-03-20T02:15:10.677Z,8.80
2019-03-20T02:17:41.228Z,8.74
2019-03-20T02:20:13.831Z,8.74
2019-03-20T02:22:44.610Z,8.70
2019-03-20T02:25:16.171Z,8.76
2019-03-20T02:27:46.942Z,8.79
2019-03-20T02:30:18.144Z,8.79
2019-03-20T02:32:48.899Z,8.78
2019-03-20T02:35:19.713Z,8.79
2019-03-20T02:37:51.493Z,8.79
2019-03-20T02:40:21.994Z,8.90
2019-03-20T02:42:52.668Z,8.90
2019-03-20T02:45:23.395Z,8.90
2019-03-20T02:47:53.914Z,8.96
2019-03-20T02:50:24.582Z,8.89
2019-03-20T02:52:54.991Z,8.89
2019-03-20T02:55:25.517Z,8.88
2019-03-20T02:57:56.299Z,8.88
2019-03-20T03:00:26.680Z,8.84
2019-03-20T03:02:57.262Z,8.78
2019-03-20T03:05:27.873Z,8.53
2019-03-20T03:07:58.553Z,8.53
2019-03-20T03:10:29.167Z,8.58
2019-03-20T03:13:00.312Z,8.48
2019-03-20T03:15:30.895Z,8.48
2019-03-20T03:18:01.740Z,8.64
2019-03-20T03:20:32.456Z,8.64
2019-03-20T03:23:03.114Z,8.69
2019-03-20T03:25:33.714Z,8.67
2019-03-20T03:28:04.511Z,8.69
2019-03-20T03:30:35.259Z,8.69
2019-03-20T03:33:07.239Z,8.69
2019-03-20T03:35:37.985Z,8.68
2019-03-20T03:38:08.640Z,8.68
2019-03-20T03:40:39.553Z,8.61
2019-03-20T03:43:11.492Z,8.61
2019-03-20T03:45:42.915Z,8.61
2019-03-20T03:48:13.693Z,8.64
2019-03-20T03:50:48.087Z,8.64
2019-03-20T03:53:16.660Z,8.69
2019-03-20T03:58:35.848Z,8.67
2019-03-20T04:01:06.897Z,8.62
2019-03-20T04:03:37.699Z,8.65
2019-03-20T04:06:08.640Z,8.65
2019-03-20T04:08:40.445Z,8.71
2019-03-20T04:11:11.097Z,8.62
2019-03-20T04:13:41.954Z,8.64
2019-03-20T04:16:12.602Z,8.70
2019-03-20T04:18:43.089Z,8.76
2019-03-20T04:21:14.014Z,8.71
2019-03-20T04:24:37.569Z,8.71
2019-03-20T04:27:08.783Z,8.59
2019-03-20T04:29:40.007Z,8.57
2019-03-20T04:32:10.695Z,8.62
2019-03-20T04:34:41.721Z,8.52
2019-03-20T04:37:12.504Z,8.59
2019-03-20T04:39:44.643Z,8.57
2019-03-20T04:42:15.660Z,8.57
2019-03-20T04:44:46.232Z,8.71
2019-03-20T04:47:17.398Z,8.70
2019-03-20T04:49:48.168Z,8.84
2019-03-20T04:52:18.619Z,8.80
2019-03-20T04:54:49.405Z,8.80
2019-03-20T04:57:20.114Z,8.91
2019-03-20T04:59:50.722Z,8.91
2019-03-20T05:02:22.385Z,8.95
2019-03-20T05:04:53.263Z,8.95
2019-03-20T05:07:23.948Z,9.01
2019-03-20T05:09:54.496Z,9.01
2019-03-20T05:12:25.154Z,9.07
2019-03-20T05:14:55.893Z,9.19
2019-03-20T05:17:28.420Z,9.19
2019-03-20T05:19:59.133Z,9.05
2019-03-20T05:22:29.866Z,9.02
2019-03-20T05:25:00.700Z,9.02
2019-03-20T05:27:31.478Z,8.71
2019-03-20T05:30:01.918Z,8.71
2019-03-20T05:32:32.354Z,8.78
2019-03-20T05:35:03.384Z,8.94
2019-03-20T05:37:34.477Z,9.10
2019-03-20T05:40:05.549Z,9.13
2019-03-20T05:42:36.452Z,9.13
2019-03-20T05:45:09.006Z,9.17
2019-03-20T05:47:39.715Z,9.09
2019-03-20T05:50:11.179Z,9.12
2019-03-20T05:52:42.099Z,9.12
2019-03-20T05:55:12.934Z,9.10
2019-03-20T06:00:21.416Z,9.36
2019-03-20T06:02:52.011Z,9.40
2019-03-20T06:05:22.567Z,9.35
2019-03-20T06:07:53.360Z,9.28
2019-03-20T06:10:25.960Z,9.39
2019-03-20T06:12:56.598Z,9.39
2019-03-20T06:15:27.317Z,9.48
2019-03-20T06:17:58.007Z,9.52
2019-03-20T06:20:28.543Z,9.59
2019-03-20T06:22:59.338Z,9.59
2019-03-20T06:25:30.150Z,9.55
2019-03-20T06:28:01.001Z,9.49
2019-03-20T06:30:31.971Z,9.49
2019-03-20T06:33:02.589Z,9.42
2019-03-20T06:35:33.167Z,9.41
2019-03-20T06:38:04.039Z,9.34
2019-03-20T06:40:34.831Z,9.34
2019-03-20T06:43:05.674Z,9.48
2019-03-20T06:45:37.137Z,9.45
2019-03-20T06:48:07.766Z,9.45
2019-03-20T06:50:38.956Z,9.51
2019-03-20T06:53:09.730Z,9.60
2019-03-20T06:55:40.290Z,9.75
2019-03-20T06:58:10.899Z,9.82
2019-03-20T07:01:05.763Z,10.10
2019-03-20T07:04:13.048Z,10.33
2019-03-20T07:06:57.560Z,10.51
2019-03-20T07:10:04.457Z,10.63
2019-03-20T07:12:36.141Z,10.77
2019-03-20T07:15:07.202Z,10.90
2019-03-20T07:17:37.643Z,11.02
2019-03-20T07:20:08.834Z,10.94
2019-03-20T07:22:39.311Z,10.92
2019-03-20T07:25:09.786Z,10.87
2019-03-20T07:27:40.363Z,10.88
2019-03-20T07:30:11.942Z,10.88
2019-03-20T07:32:42.531Z,10.95
2019-03-20T07:35:13.394Z,11.16
2019-03-20T07:37:55.338Z,11.58
2019-03-20T07:40:17.427Z,11.96
2019-03-20T07:42:48.110Z,12.32
2019-03-20T07:45:18.870Z,12.46
2019-03-20T07:47:49.462Z,12.55
2019-03-20T07:50:19.936Z,12.47
2019-03-20T07:52:50.326Z,12.54
2019-03-20T07:55:21.039Z,12.74
2019-03-20T07:57:52.513Z,12.91
2019-03-20T08:00:23.246Z,12.80
2019-03-20T08:02:53.937Z,12.79
2019-03-20T08:05:29.112Z,12.63
2019-03-20T08:08:06.759Z,12.90
2019-03-20T08:10:29.612Z,13.08
2019-03-20T08:13:00.379Z,13.71
2019-03-20T08:15:31.902Z,14.16
2019-03-20T08:18:02.448Z,14.60
2019-03-20T08:20:34.295Z,14.54
2019-03-20T08:23:04.989Z,14.53
2019-03-20T08:25:35.575Z,14.44
2019-03-20T08:28:06.511Z,14.34
2019-03-20T08:30:37.151Z,14.19
2019-03-20T08:33:07.875Z,13.76
2019-03-20T08:35:38.561Z,13.88
2019-03-20T08:38:17.809Z,13.53
2019-03-20T08:40:41.908Z,13.58
2019-03-20T08:43:12.352Z,13.51
2019-03-20T08:45:42.762Z,13.57
2019-03-20T08:48:13.770Z,13.45
2019-03-20T08:50:44.422Z,13.38
2019-03-20T08:53:15.240Z,13.19
2019-03-20T08:55:46.062Z,13.47
2019-03-20T08:58:16.789Z,13.80
2019-03-20T09:00:48.075Z,13.68
2019-03-20T09:03:19.101Z,13.56
2019-03-20T09:05:49.882Z,13.91
2019-03-20T09:08:28.960Z,14.07
2019-03-20T09:10:52.641Z,14.33
2019-03-20T09:13:23.527Z,14.16
2019-03-20T09:15:56.129Z,14.30
2019-03-20T09:18:26.807Z,14.51
2019-03-20T09:21:03.783Z,14.46
2019-03-20T09:23:34.438Z,14.38
2019-03-20T09:26:05.837Z,14.52
2019-03-20T09:28:36.523Z,14.57
2019-03-20T09:31:07.382Z,14.81
2019-03-20T09:33:37.820Z,15.05
2019-03-20T09:36:08.444Z,14.93
2019-03-20T09:38:43.332Z,14.91
2019-03-20T09:41:10.993Z,15.02
2019-03-20T09:43:41.789Z,14.97
2019-03-20T09:46:12.323Z,14.93
2019-03-20T09:48:42.869Z,14.80
2019-03-20T09:51:13.473Z,14.72
2019-03-20T09:53:44.115Z,14.24
2019-03-20T09:56:14.391Z,14.31
2019-03-20T09:58:45.052Z,14.39
2019-03-20T10:01:16.321Z,14.34
2019-03-20T10:03:46.954Z,14.36
2019-03-20T10:06:17.580Z,14.33
2019-03-20T10:08:54.073Z,14.26
2019-03-20T10:11:20.302Z,14.34
2019-03-20T10:13:53.953Z,14.34
2019-03-20T10:16:25.609Z,14.55
2019-03-20T10:18:56.333Z,14.03
2019-03-20T10:21:27.119Z,13.96
2019-03-20T10:24:01.477Z,14.31
2019-03-20T10:26:32.385Z,14.42
2019-03-20T10:29:05.060Z,14.88
2019-03-20T10:31:35.740Z,15.07
2019-03-20T10:34:06.223Z,15.03
2019-03-20T10:36:37.303Z,15.13
2019-03-20T10:39:10.305Z,15.16
2019-03-20T10:41:41.680Z,14.88
2019-03-20T10:44:12.184Z,14.77
2019-03-20T10:46:42.819Z,14.44
2019-03-20T10:49:13.728Z,14.42
2019-03-20T10:51:43.976Z,14.30
2019-03-20T10:54:16.584Z,14.14
2019-03-20T10:56:48.058Z,13.95
2019-03-20T10:59:18.978Z,13.63
2019-03-20T11:01:49.526Z,13.58
2019-03-20T11:04:20.051Z,13.68
2019-03-20T11:06:50.559Z,13.66
2019-03-20T11:09:21.257Z,13.78
2019-03-20T11:12:01.400Z,13.71
2019-03-20T11:14:32.160Z,13.57
2019-03-20T11:17:02.892Z,13.46
2019-03-20T11:19:33.405Z,13.42
2019-03-20T11:22:04.153Z,13.52
2019-03-20T11:24:34.403Z,13.57
2019-03-20T11:27:05.026Z,13.65
2019-03-20T11:29:35.714Z,13.71
2019-03-20T11:32:06.567Z,13.80
2019-03-20T11:34:36.925Z,13.52
2019-03-20T11:37:07.702Z,13.50
2019-03-20T11:39:38.235Z,13.38
2019-03-20T11:42:08.832Z,13.21
2019-03-20T11:44:39.525Z,13.18
2019-03-20T11:47:10.199Z,13.11
2019-03-20T11:49:40.652Z,13.10
2019-03-20T11:52:11.346Z,12.68
2019-03-20T11:54:41.912Z,12.57
2019-03-20T11:57:13.910Z,12.73
2019-03-20T11:59:44.707Z,12.93
2019-03-20T12:02:15.633Z,13.01
2019-03-20T12:04:46.264Z,12.85
2019-03-20T12:07:16.849Z,12.85
2019-03-20T12:09:47.658Z,12.96
2019-03-20T12:12:18.126Z,13.11
2019-03-20T12:14:49.252Z,13.22
2019-03-20T12:17:20.366Z,12.89
2019-03-20T12:19:51.331Z,13.07
2019-03-20T12:22:21.882Z,13.17
2019-03-20T12:24:52.286Z,12.96
2019-03-20T12:27:23.966Z,12.94
2019-03-20T12:29:54.630Z,12.88
2019-03-20T12:32:25.416Z,12.67
2019-03-20T12:34:56.176Z,12.77
2019-03-20T12:37:26.828Z,12.81
2019-03-20T12:39:57.986Z,12.49
2019-03-20T12:42:29.589Z,12.56
2019-03-20T12:45:00.539Z,12.34
2019-03-20T12:47:31.153Z,12.41
2019-03-20T12:50:01.830Z,12.17
2019-03-20T12:52:32.390Z,12.21
2019-03-20T12:55:02.899Z,12.12
2019-03-20T12:57:33.309Z,12.08
2019-03-20T13:00:04.056Z,11.94
2019-03-20T13:02:34.605Z,11.92
2019-03-20T13:05:05.998Z,11.92
2019-03-20T13:07:36.865Z,11.78
2019-03-20T13:10:08.221Z,11.73
2019-03-20T13:12:39.820Z,11.78
2019-03-20T13:15:12.461Z,11.81
2019-03-20T13:17:43.269Z,11.80
2019-03-20T13:20:15.326Z,11.63
2019-03-20T13:22:46.298Z,11.51
2019-03-20T13:25:17.739Z,11.43
2019-03-20T13:27:48.233Z,11.40
2019-03-20T13:30:31.683Z,11.36
2019-03-20T13:33:02.917Z,11.26
2019-03-20T13:35:33.996Z,11.18
2019-03-20T13:38:04.634Z,11.19
2019-03-20T13:40:34.997Z,11.28
2019-03-20T13:43:05.911Z,11.34
2019-03-20T13:45:37.175Z,11.22
2019-03-20T13:48:07.856Z,11.18
2019-03-20T13:50:38.373Z,11.22
2019-03-20T13:53:09.125Z,11.30
2019-03-20T13:55:39.744Z,11.36
2019-03-20T13:58:10.185Z,11.42
2019-03-20T14:00:40.891Z,11.39
2019-03-20T14:03:11.797Z,11.46
2019-03-20T14:05:43.630Z,11.41
2019-03-20T14:08:14.322Z,11.41
2019-03-20T14:10:50.277Z,11.42
2019-03-20T14:13:16.832Z,11.37
2019-03-20T14:15:48.484Z,11.34
2019-03-20T14:18:20.828Z,11.34
2019-03-20T14:20:52.660Z,11.29
2019-03-20T14:23:23.258Z,11.20
2019-03-20T14:25:54.244Z,11.16
2019-03-20T14:28:24.919Z,11.05
2019-03-20T14:30:55.321Z,11.06
2019-03-20T14:33:25.755Z,11.06
2019-03-20T14:35:56.207Z,11.08
2019-03-20T14:38:27.597Z,11.08
2019-03-20T14:40:58.308Z,11.13
2019-03-20T14:43:28.814Z,11.17
2019-03-20T14:45:59.417Z,11.11
2019-03-20T14:48:30.142Z,11.14
2019-03-20T14:51:00.945Z,11.20
2019-03-20T14:53:31.865Z,11.12
2019-03-20T14:56:02.600Z,11.02
2019-03-20T14:58:35.330Z,11.03
2019-03-20T15:01:06.180Z,11.05
2019-03-20T15:03:37.774Z,11.08
2019-03-20T15:06:08.579Z,11.02
2019-03-20T15:08:39.267Z,10.98
2019-03-20T15:11:09.958Z,11.01
2019-03-20T15:13:40.901Z,11.06
2019-03-20T15:16:14.725Z,11.07
2019-03-20T15:18:45.359Z,10.95
2019-03-20T15:21:16.082Z,10.89
2019-03-20T15:23:46.714Z,10.89
2019-03-20T15:26:18.698Z,10.69
2019-03-20T15:28:48.938Z,10.85
2019-03-20T15:31:19.318Z,10.91
2019-03-20T15:33:49.995Z,10.96
2019-03-20T15:36:20.697Z,10.80
2019-03-20T15:38:51.393Z,10.69
2019-03-20T15:41:22.284Z,10.74
2019-03-20T15:44:02.164Z,10.83
2019-03-20T15:46:25.833Z,10.88
2019-03-20T15:48:56.407Z,10.93
2019-03-20T15:51:28.164Z,10.97
2019-03-20T15:53:58.857Z,10.93
2019-03-20T15:56:30.809Z,10.94
2019-03-20T15:59:01.971Z,10.99
2019-03-20T16:01:32.339Z,10.92
2019-03-20T16:04:02.781Z,10.86
2019-03-20T16:06:33.435Z,10.71
2019-03-20T16:09:05.391Z,10.62
2019-03-20T16:11:36.173Z,10.56
2019-03-20T16:14:06.941Z,10.50
2019-03-20T16:16:37.623Z,10.50
2019-03-20T16:19:11.718Z,10.43
2019-03-20T16:21:44.707Z,10.41
2019-03-20T16:24:20.357Z,10.35
2019-03-20T16:26:51.118Z,10.35
2019-03-20T16:29:21.476Z,10.29
2019-03-20T16:31:52.649Z,10.27
2019-03-20T16:34:24.392Z,10.24
2019-03-20T16:36:55.272Z,10.21
2019-03-20T16:39:25.817Z,10.10
2019-03-20T16:41:56.395Z,10.11
2019-03-20T16:44:26.738Z,10.08
2019-03-20T16:46:57.489Z,10.04
2019-03-20T16:49:27.975Z,9.92
2019-03-20T16:51:58.432Z,9.91
2019-03-20T16:54:28.995Z,9.91
2019-03-20T16:57:01.362Z,9.73
2019-03-20T16:59:32.185Z,9.66
2019-03-20T17:02:02.763Z,9.65
2019-03-20T17:04:33.899Z,9.65
2019-03-20T17:07:05.813Z,9.65
2019-03-20T17:09:36.526Z,9.73
2019-03-20T17:12:07.219Z,9.67
2019-03-20T17:14:38.002Z,9.57
2019-03-20T17:17:09.955Z,9.56
2019-03-20T17:19:40.500Z,9.46
2019-03-20T17:22:14.683Z,9.50
2019-03-20T17:24:45.056Z,9.41
2019-03-20T17:27:15.379Z,9.41
2019-03-20T17:29:45.863Z,9.44
2019-03-20T17:32:19.234Z,9.49
2019-03-20T17:34:50.757Z,9.39
2019-03-20T17:37:21.027Z,9.39
2019-03-20T17:39:51.463Z,9.35
2019-03-20T17:42:22.140Z,9.41
2019-03-20T17:44:52.647Z,9.41
2019-03-20T17:47:23.314Z,9.38
2019-03-20T17:49:54.299Z,9.38
2019-03-20T17:52:25.025Z,9.26
2019-03-20T17:54:55.744Z,9.28
2019-03-20T17:57:26.626Z,9.21
2019-03-20T17:59:57.010Z,9.17
2019-03-20T18:02:27.603Z,9.10
2019-03-20T18:04:58.074Z,9.00
2019-03-20T18:07:29.138Z,8.91
2019-03-20T18:10:00.373Z,8.95
2019-03-20T18:12:31.161Z,9.10
2019-03-20T18:15:01.678Z,9.10
2019-03-20T18:17:32.330Z,9.15
2019-03-20T18:20:05.838Z,9.16
2019-03-20T18:22:37.451Z,9.15
2019-03-20T18:25:08.903Z,9.12
2019-03-20T18:27:39.912Z,9.03
2019-03-20T18:30:27.073Z,9.03
2019-03-20T18:32:57.694Z,9.04
2019-03-20T18:35:28.447Z,9.04
2019-03-20T18:37:58.999Z,9.06
2019-03-20T18:40:29.409Z,9.25
2019-03-20T18:43:00.078Z,9.35
2019-03-20T18:45:31.151Z,9.46
2019-03-20T18:48:01.839Z,9.52
2019-03-20T18:50:32.655Z,9.50
2019-03-20T18:53:03.347Z,9.50
2019-03-20T18:55:34.067Z,9.53
2019-03-20T18:58:05.069Z,9.51
2019-03-20T19:00:36.093Z,9.51
2019-03-20T19:03:07.804Z,9.53
2019-03-20T19:06:14.349Z,9.55
2019-03-20T19:08:44.579Z,9.55
2019-03-20T19:11:18.731Z,9.64
2019-03-20T19:13:49.372Z,9.59
2019-03-20T19:16:20.430Z,9.59
2019-03-20T19:18:52.582Z,9.62
2019-03-20T19:21:23.468Z,9.64
2019-03-20T19:23:55.739Z,9.71
2019-03-20T19:26:26.454Z,9.79
2019-03-20T19:28:57.198Z,9.79
2019-03-20T19:31:29.202Z,9.90
2019-03-20T19:34:01.571Z,9.90
2019-03-20T19:36:36.976Z,9.97
2019-03-20T19:39:09.647Z,9.97
2019-03-20T19:41:40.774Z,9.97
2019-03-20T19:44:13.748Z,9.96
2019-03-20T19:46:44.483Z,9.96
2019-03-20T19:49:15.302Z,10.04
2019-03-20T19:51:46.098Z,10.05
2019-03-20T19:54:17.215Z,10.08
2019-03-20T19:56:50.008Z,10.10
2019-03-20T19:59:22.456Z,10.17
2019-03-20T20:01:53.131Z,10.16
2019-03-20T20:04:23.744Z,10.17
2019-03-20T20:06:55.824Z,10.29
2019-03-20T20:09:26.521Z,10.26
2019-03-20T20:11:58.559Z,10.33
2019-03-20T20:14:29.318Z,10.33
2019-03-20T20:17:00.359Z,10.39
2019-03-20T20:19:33.802Z,10.42
2019-03-20T20:22:05.335Z,10.44
2019-03-20T20:24:37.115Z,10.52
2019-03-20T20:27:09.323Z,10.51
2019-03-20T20:29:40.164Z,10.53
2019-03-20T20:32:11.454Z,10.54
2019-03-20T20:34:42.404Z,10.55
2019-03-20T20:37:13.019Z,10.54
2019-03-20T20:39:43.790Z,10.56
2019-03-20T20:42:14.492Z,10.54
2019-03-20T20:44:45.733Z,10.56
2019-03-20T20:47:17.864Z,10.60
2019-03-20T20:49:48.716Z,10.62
2019-03-20T20:52:19.899Z,10.64
2019-03-20T20:54:53.187Z,10.66
2019-03-20T20:57:25.081Z,10.65
2019-03-20T20:59:56.131Z,10.71
2019-03-20T21:02:26.871Z,10.72
2019-03-20T21:05:00.548Z,10.70
2019-03-20T21:07:31.276Z,10.69
2019-03-20T21:10:01.994Z,10.66
2019-03-20T21:12:32.731Z,10.62
2019-03-20T21:15:07.195Z,10.62
2019-03-20T21:18:40.057Z,10.63
2019-03-20T21:21:11.632Z,10.62
2019-03-20T21:24:18.305Z,10.60
2019-03-20T21:27:46.566Z,10.60
2019-03-20T21:30:47.277Z,10.64
2019-03-20T21:33:43.024Z,10.62
2019-03-20T21:37:01.010Z,10.63
2019-03-20T21:39:33.427Z,10.66
2019-03-20T21:42:36.448Z,10.68
2019-03-20T21:45:28.272Z,10.63
2019-03-20T21:48:00.488Z,10.64
2019-03-20T21:51:13.693Z,10.64
2019-03-20T21:54:24.776Z,10.61
2019-03-20T21:57:36.005Z,10.62
2019-03-20T22:00:36.500Z,10.56
2019-03-20T22:03:07.931Z,10.52
2019-03-20T22:06:15.127Z,10.45
2019-03-20T22:08:46.684Z,10.45
2019-03-20T22:11:52.551Z,10.43
2019-03-20T22:14:25.005Z,10.41
2019-03-20T22:17:49.869Z,10.36
2019-03-20T22:20:34.240Z,10.34
2019-03-20T22:23:22.652Z,10.27
2019-03-20T22:26:27.981Z,10.08
2019-03-20T22:29:27.440Z,10.08
2019-03-20T22:32:34.068Z,10.11
2019-03-20T22:35:31.297Z,10.13
2019-03-20T22:38:02.954Z,10.13
2019-03-20T22:41:22.743Z,10.03
2019-03-20T22:44:03.555Z,10.03
2019-03-20T22:47:11.444Z,10.01
2019-03-20T22:50:15.957Z,9.96
2019-03-20T22:53:09.204Z,9.94
2019-03-20T22:56:19.547Z,9.94
2019-03-20T22:58:51.848Z,9.87
2019-03-20T23:01:45.880Z,9.87
2019-03-20T23:04:24.453Z,9.87
2019-03-20T23:06:55.887Z,9.87
2019-03-20T23:09:26.793Z,9.81
2019-03-20T23:11:59.076Z,9.83
2019-03-20T23:14:30.867Z,9.78
2019-03-20T23:17:01.825Z,9.74
2019-03-20T23:19:34.011Z,9.72
2019-03-20T23:22:05.377Z,9.68
2019-03-20T23:24:36.267Z,9.68
2019-03-20T23:27:11.252Z,9.64
2019-03-20T23:29:42.292Z,9.60
2019-03-20T23:32:14.435Z,9.49
2019-03-20T23:34:45.578Z,9.49
2019-03-20T23:37:17.211Z,9.44
2019-03-20T23:39:49.383Z,9.35
2019-03-20T23:42:20.945Z,9.22
2019-03-20T23:44:52.128Z,9.27
2019-03-20T23:47:31.192Z,9.19
2019-03-20T23:50:03.227Z,9.11
2019-03-20T23:52:34.132Z,9.16
2019-03-20T23:55:07.015Z,9.16
2019-03-20T23:57:37.967Z,9.09
